Time;durP1;ratioP1;P1;durP2;ratioP2;P2;SDS_P1;SDS_P2;PMS_P1;PMS_P2;Temp;Humidity;BMP_temperature;BMP_pressure;BME280_temperature;BME280_humidity;BME280_pressure;Samples;Min_cycle;Max_cycle;Signal;HPM_P1;HPM_P2
2024/04/25 00:00:37;;;;;;;8.07;5.47;;;7.00;99.90;;;;;;2237399;26;20006;-71
2024/04/25 00:01:38;;;;;;;6.30;5.70;;;7.00;99.90;;;;;;2237898;26;20587;-71
2024/04/25 00:02:38;;;;;;;8.00;5.57;;;7.00;99.90;;;;;;2238769;26;20413;-71
2024/04/25 00:03:39;;;;;;;8.10;5.43;;;7.00;99.90;;;;;;2237788;26;20072;-71
2024/04/25 00:04:39;;;;;;;7.93;5.78;;;6.90;99.90;;;;;;2236893;26;20003;-71
2024/04/25 00:05:40;;;;;;;6.80;5.32;;;6.90;99.90;;;;;;2235185;26;20001;-71
2024/04/25 00:06:40;;;;;;;7.90;5.28;;;6.90;99.90;;;;;;2232810;26;19992;-71
2024/04/25 00:07:41;;;;;;;5.65;5.13;;;6.90;99.90;;;;;;2235116;26;19995;-71
2024/04/25 00:08:41;;;;;;;6.07;5.50;;;6.90;99.90;;;;;;2234566;26;19995;-71
2024/04/25 00:09:42;;;;;;;7.70;5.80;;;6.90;99.90;;;;;;2236021;26;20350;-71
2024/04/25 00:10:42;;;;;;;11.10;4.97;;;6.90;99.90;;;;;;2238684;26;20367;-71
2024/04/25 00:11:43;;;;;;;9.48;5.50;;;6.90;99.90;;;;;;2237645;26;19995;-71
2024/04/25 00:12:43;;;;;;;9.18;6.07;;;6.90;99.90;;;;;;2235720;26;20050;-71
2024/04/25 00:13:44;;;;;;;7.72;5.70;;;6.90;99.90;;;;;;2238067;26;19996;-71
2024/04/25 00:14:44;;;;;;;11.70;5.85;;;6.90;99.90;;;;;;2250936;26;20062;-71
2024/04/25 00:15:45;;;;;;;8.15;5.20;;;6.90;99.90;;;;;;2235316;26;20011;-71
2024/04/25 00:16:45;;;;;;;7.00;5.85;;;6.90;99.90;;;;;;2235291;26;20770;-71
2024/04/25 00:17:46;;;;;;;6.10;5.50;;;6.90;99.90;;;;;;2237934;26;20014;-71
2024/04/25 00:18:46;;;;;;;8.63;5.90;;;6.90;99.90;;;;;;2238407;26;19996;-71
2024/04/25 00:19:47;;;;;;;7.90;5.80;;;6.90;99.90;;;;;;2237549;26;20497;-71
2024/04/25 00:20:48;;;;;;;8.32;5.82;;;6.90;99.90;;;;;;2237044;26;20003;-71
2024/04/25 00:21:48;;;;;;;6.53;5.22;;;6.90;99.90;;;;;;2238450;26;19995;-71
2024/04/25 00:22:49;;;;;;;10.60;5.07;;;6.90;99.90;;;;;;2237498;26;19996;-71
2024/04/25 00:23:50;;;;;;;8.70;5.15;;;6.90;99.90;;;;;;2238195;26;19995;-71
2024/04/25 00:24:50;;;;;;;6.13;4.63;;;6.90;99.90;;;;;;2233155;26;20008;-71
2024/04/25 00:25:51;;;;;;;8.73;4.50;;;6.90;99.90;;;;;;2236844;26;20064;-71
2024/04/25 00:26:51;;;;;;;6.90;5.10;;;6.90;99.90;;;;;;2235370;26;19999;-71
2024/04/25 00:27:53;;;;;;;7.20;5.50;;;6.90;99.90;;;;;;2234679;26;19999;-71
2024/04/25 00:28:54;;;;;;;6.82;4.90;;;6.90;99.90;;;;;;2236496;26;20027;-71
2024/04/25 00:29:57;;;;;;;9.27;5.50;;;6.90;99.90;;;;;;2237307;26;20019;-71
2024/04/25 00:30:57;;;;;;;6.82;5.38;;;6.90;99.90;;;;;;2236943;26;20047;-71
2024/04/25 00:31:58;;;;;;;5.63;4.95;;;6.90;99.90;;;;;;2250070;26;20013;-71
2024/04/25 00:32:58;;;;;;;8.23;5.22;;;6.90;99.90;;;;;;2251531;26;19999;-71
2024/04/25 00:33:59;;;;;;;8.05;4.93;;;6.90;99.90;;;;;;2249009;26;20024;-71
2024/04/25 00:35:02;;;;;;;6.13;5.15;;;6.90;99.90;;;;;;2238107;26;20136;-71
2024/04/25 00:36:03;;;;;;;7.80;4.32;;;6.90;99.90;;;;;;2238750;26;20019;-71
2024/04/25 00:37:03;;;;;;;5.47;4.97;;;6.90;99.90;;;;;;2238801;26;20022;-71
2024/04/25 00:38:04;;;;;;;8.82;5.57;;;6.90;99.90;;;;;;2236944;26;20019;-71
2024/04/25 00:39:04;;;;;;;8.13;5.28;;;6.90;99.90;;;;;;2235534;26;20077;-71
2024/04/25 00:40:06;;;;;;;8.18;5.40;;;6.90;99.90;;;;;;2239214;26;20487;-71
2024/04/25 00:41:06;;;;;;;10.30;5.60;;;6.90;99.90;;;;;;2236080;26;19999;-71
2024/04/25 00:42:19;;;;;;;7.45;4.60;;;6.90;99.90;;;;;;2234699;26;20004;-71
2024/04/25 00:43:30;;;;;;;9.20;5.05;;;6.90;99.90;;;;;;2237973;26;20000;-71
2024/04/25 00:44:31;;;;;;;5.88;4.30;;;6.90;99.90;;;;;;2248061;26;20018;-71
2024/04/25 00:45:32;;;;;;;6.60;4.97;;;7.00;99.90;;;;;;2237382;26;19999;-71
2024/04/25 00:46:32;;;;;;;5.93;4.32;;;7.00;99.90;;;;;;2238688;26;20008;-71
2024/04/25 00:47:35;;;;;;;8.38;4.70;;;7.00;99.90;;;;;;2237252;26;20007;-71
2024/04/25 00:48:36;;;;;;;6.88;5.32;;;6.90;99.90;;;;;;2236371;26;20006;-71
2024/04/25 00:49:37;;;;;;;8.05;4.60;;;7.00;99.90;;;;;;2237630;26;20351;-71
2024/04/25 00:50:38;;;;;;;7.82;5.13;;;7.00;99.90;;;;;;2238242;26;20013;-71
2024/04/25 00:51:40;;;;;;;7.35;4.43;;;7.00;99.90;;;;;;2236877;26;20004;-71
2024/04/25 00:52:41;;;;;;;7.88;4.50;;;7.00;99.90;;;;;;2237116;26;20015;-71
2024/04/25 00:53:41;;;;;;;6.88;4.60;;;6.90;99.90;;;;;;2236314;26;20018;-71
2024/04/25 00:54:42;;;;;;;5.97;4.75;;;7.00;99.90;;;;;;2237717;26;20022;-71
2024/04/25 00:55:47;;;;;;;5.35;4.65;;;7.00;99.90;;;;;;2237950;26;19999;-71
2024/04/25 00:56:48;;;;;;;8.23;5.20;;;7.00;99.90;;;;;;2236324;26;20022;-71
2024/04/25 00:57:50;;;;;;;5.80;4.40;;;7.00;99.90;;;;;;2236736;26;20464;-71
2024/04/25 00:58:56;;;;;;;7.75;4.90;;;7.00;99.90;;;;;;2235671;26;20081;-71
2024/04/25 01:00:00;;;;;;;8.43;4.10;;;7.00;99.90;;;;;;2235103;26;20039;-71
2024/04/25 01:01:02;;;;;;;7.15;4.78;;;7.00;99.90;;;;;;2237741;26;20791;-71
2024/04/25 01:02:06;;;;;;;6.53;4.20;;;7.00;99.90;;;;;;2236106;26;20013;-71
2024/04/25 01:03:07;;;;;;;8.50;4.55;;;7.00;99.90;;;;;;2238235;26;20008;-71
2024/04/25 01:04:09;;;;;;;5.53;3.67;;;7.10;99.90;;;;;;2237359;26;20003;-71
2024/04/25 01:05:10;;;;;;;10.65;4.47;;;7.10;99.90;;;;;;2232878;26;20003;-71
2024/04/25 01:06:11;;;;;;;7.13;4.15;;;7.10;99.90;;;;;;2237476;26;20007;-71
2024/04/25 01:07:13;;;;;;;6.50;3.92;;;7.10;99.90;;;;;;2237800;26;19999;-71
2024/04/25 01:08:14;;;;;;;6.68;4.53;;;7.10;99.90;;;;;;2245471;26;19995;-71
2024/04/25 01:09:15;;;;;;;6.47;4.28;;;7.10;99.90;;;;;;2241720;26;20007;-71
2024/04/25 01:10:15;;;;;;;4.38;3.42;;;7.10;99.90;;;;;;2236885;26;20019;-71
2024/04/25 01:11:16;;;;;;;6.10;3.92;;;7.10;99.90;;;;;;2238434;26;20010;-71
2024/04/25 01:12:17;;;;;;;4.78;4.20;;;7.10;99.90;;;;;;2237122;26;20018;-72
2024/04/25 01:13:18;;;;;;;7.55;4.22;;;7.10;99.90;;;;;;2232416;26;20007;-71
2024/04/25 01:14:19;;;;;;;9.65;5.03;;;7.10;99.90;;;;;;2219791;26;20043;-71
2024/04/25 01:15:19;;;;;;;8.65;4.63;;;7.10;99.90;;;;;;2232011;26;20000;-71
2024/04/25 01:16:20;;;;;;;4.85;3.90;;;7.10;99.90;;;;;;2236539;26;20003;-71
2024/04/25 01:17:21;;;;;;;6.28;3.53;;;7.20;99.90;;;;;;2236905;26;20414;-71
2024/04/25 01:18:22;;;;;;;9.20;4.22;;;7.20;99.90;;;;;;2239045;26;20077;-71
2024/04/25 01:19:22;;;;;;;5.45;3.83;;;7.20;99.90;;;;;;2234826;26;20011;-71
2024/04/25 01:20:23;;;;;;;6.72;3.90;;;7.20;99.90;;;;;;2221175;26;20005;-71
2024/04/25 01:21:24;;;;;;;5.82;3.80;;;7.20;99.90;;;;;;2220519;26;20001;-71
2024/04/25 01:22:35;;;;;;;5.13;3.90;;;7.20;99.90;;;;;;2237378;26;20475;-71
2024/04/25 01:23:38;;;;;;;6.35;4.00;;;7.20;99.90;;;;;;2238215;26;20448;-71
2024/04/25 01:24:39;;;;;;;4.60;3.78;;;7.20;99.90;;;;;;2238295;26;20015;-71
2024/04/25 01:25:42;;;;;;;4.97;3.63;;;7.20;99.90;;;;;;2236705;26;19996;-71
2024/04/25 01:26:43;;;;;;;4.13;3.72;;;7.20;99.90;;;;;;2234369;26;21251;-71
2024/04/25 01:27:44;;;;;;;6.53;4.40;;;7.20;99.90;;;;;;2235885;26;20010;-71
2024/04/25 01:28:45;;;;;;;5.47;4.32;;;7.20;99.90;;;;;;2235582;26;20422;-71
2024/04/25 01:29:47;;;;;;;5.53;4.38;;;7.20;99.90;;;;;;2235701;26;20854;-71
2024/04/25 01:30:48;;;;;;;4.80;4.07;;;7.20;99.90;;;;;;2237569;26;20003;-71
2024/04/25 01:31:49;;;;;;;5.15;4.30;;;7.30;99.90;;;;;;2219157;26;20004;-71
2024/04/25 01:32:50;;;;;;;5.70;3.60;;;7.30;99.90;;;;;;2237257;26;19995;-71
2024/04/25 01:33:52;;;;;;;7.28;4.60;;;7.30;99.90;;;;;;2251652;26;20010;-71
2024/04/25 01:34:53;;;;;;;6.55;4.47;;;7.30;99.90;;;;;;2249804;26;20011;-71
2024/04/25 01:35:54;;;;;;;6.32;3.95;;;7.30;99.90;;;;;;2237400;26;20014;-71
2024/04/25 01:36:55;;;;;;;5.90;4.05;;;7.30;99.90;;;;;;2237458;26;19995;-71
2024/04/25 01:37:59;;;;;;;8.35;4.20;;;7.30;99.90;;;;;;2234469;26;20000;-71
2024/04/25 01:38:59;;;;;;;5.55;3.90;;;7.30;99.90;;;;;;2235460;26;20047;-71
2024/04/25 01:40:00;;;;;;;7.30;3.90;;;7.30;99.90;;;;;;2235959;26;20010;-71
2024/04/25 01:41:01;;;;;;;4.53;3.47;;;7.30;99.90;;;;;;2238331;26;20071;-71
2024/04/25 01:42:01;;;;;;;5.10;3.92;;;7.20;99.90;;;;;;2233595;26;20443;-71
2024/04/25 01:43:02;;;;;;;5.22;3.60;;;7.20;99.90;;;;;;2234487;26;19996;-71
2024/04/25 01:44:03;;;;;;;8.35;3.85;;;7.20;99.90;;;;;;2237160;26;20018;-71
2024/04/25 01:45:04;;;;;;;5.15;4.25;;;7.20;99.90;;;;;;2237127;26;20051;-71
2024/04/25 01:46:04;;;;;;;5.70;3.60;;;7.20;99.90;;;;;;2236813;26;20012;-71
2024/04/25 01:47:05;;;;;;;4.47;3.90;;;7.20;99.90;;;;;;2236402;26;20011;-71
2024/04/25 01:48:06;;;;;;;4.97;3.65;;;7.20;99.90;;;;;;2237841;26;20077;-71
2024/04/25 01:49:06;;;;;;;4.45;3.80;;;7.20;99.90;;;;;;2236937;26;20000;-71
2024/04/25 01:50:07;;;;;;;4.60;3.75;;;7.20;99.90;;;;;;2234163;26;20004;-71
2024/04/25 01:51:07;;;;;;;5.80;3.80;;;7.20;99.90;;;;;;2238426;26;20003;-71
2024/04/25 01:52:08;;;;;;;3.78;3.45;;;7.20;99.90;;;;;;2236892;26;20851;-71
2024/04/25 01:53:09;;;;;;;6.38;3.30;;;7.20;99.90;;;;;;2238232;26;20518;-71
2024/04/25 01:54:09;;;;;;;5.60;3.72;;;7.20;99.90;;;;;;2234232;26;20010;-71
2024/04/25 01:55:10;;;;;;;4.28;3.88;;;7.20;99.90;;;;;;2236367;26;20000;-71
2024/04/25 01:56:11;;;;;;;4.05;3.60;;;7.20;99.90;;;;;;2236657;26;20006;-71
2024/04/25 01:57:11;;;;;;;6.13;3.78;;;7.20;99.90;;;;;;2238225;26;19999;-71
2024/04/25 01:58:12;;;;;;;3.70;3.35;;;7.20;99.90;;;;;;2231919;26;20135;-71
2024/04/25 01:59:12;;;;;;;4.72;3.58;;;7.20;99.90;;;;;;2236699;26;20007;-71
2024/04/25 02:00:13;;;;;;;6.45;3.50;;;7.20;99.90;;;;;;2240748;26;20027;-71
2024/04/25 02:01:13;;;;;;;6.25;3.60;;;7.20;99.90;;;;;;2240791;26;20000;-71
2024/04/25 02:02:14;;;;;;;6.82;3.50;;;7.20;99.90;;;;;;2230153;26;19999;-71
2024/04/25 02:03:15;;;;;;;4.80;3.20;;;7.20;99.90;;;;;;2229559;26;20006;-71
2024/04/25 02:04:15;;;;;;;5.20;3.30;;;7.20;99.90;;;;;;2235836;26;19995;-71
2024/04/25 02:05:15;;;;;;;6.78;3.85;;;7.20;99.90;;;;;;2237293;26;19995;-71
2024/04/25 02:06:16;;;;;;;5.32;3.10;;;7.20;99.90;;;;;;2237234;26;20007;-71
2024/04/25 02:07:16;;;;;;;4.57;3.40;;;7.20;99.90;;;;;;2236226;26;20015;-71
2024/04/25 02:08:17;;;;;;;5.82;3.70;;;7.20;99.90;;;;;;2237718;26;20004;-71
2024/04/25 02:09:17;;;;;;;5.55;3.75;;;7.20;99.90;;;;;;2237782;26;20076;-71
2024/04/25 02:10:18;;;;;;;5.47;3.65;;;7.20;99.90;;;;;;2235451;26;20042;-71
2024/04/25 02:11:19;;;;;;;6.97;3.53;;;7.30;99.90;;;;;;2235668;26;20910;-71
2024/04/25 02:12:19;;;;;;;3.80;3.38;;;7.20;99.90;;;;;;2233583;26;20018;-71
2024/04/25 02:13:20;;;;;;;6.55;3.33;;;7.20;99.90;;;;;;2238090;26;19999;-71
2024/04/25 02:14:20;;;;;;;4.88;3.70;;;7.20;99.90;;;;;;2236805;26;20068;-71
2024/04/25 02:15:21;;;;;;;5.63;3.58;;;7.20;99.90;;;;;;2238192;26;19991;-71
2024/04/25 02:16:21;;;;;;;5.13;3.38;;;7.20;99.90;;;;;;2235863;26;20010;-71
2024/04/25 02:17:22;;;;;;;4.60;3.40;;;7.20;99.90;;;;;;2236730;26;20018;-71
2024/04/25 02:18:22;;;;;;;3.85;3.35;;;7.20;99.90;;;;;;2237892;26;19999;-71
2024/04/25 02:19:24;;;;;;;5.13;3.30;;;7.20;99.90;;;;;;2236894;26;19999;-71
2024/04/25 02:25:41;;;;;;;4.70;3.42;;;7.20;99.90;;;;;;2229680;26;20008;-71
2024/04/25 02:26:45;;;;;;;8.77;3.83;;;7.10;99.90;;;;;;2237643;26;20011;-72
2024/04/25 02:27:46;;;;;;;3.42;3.03;;;7.10;99.90;;;;;;2236187;26;20003;-71
2024/04/25 02:28:46;;;;;;;5.07;2.92;;;7.20;99.90;;;;;;2235890;26;20000;-71
2024/04/25 02:29:47;;;;;;;7.30;3.63;;;7.20;99.90;;;;;;2236850;26;20432;-71
2024/04/25 02:30:47;;;;;;;5.55;3.28;;;7.20;99.90;;;;;;2237915;26;20443;-71
2024/04/25 02:31:48;;;;;;;4.57;2.75;;;7.20;99.90;;;;;;2234412;26;20072;-71
2024/04/25 02:32:48;;;;;;;5.18;3.28;;;7.20;99.90;;;;;;2237164;26;20006;-71
2024/04/25 02:33:49;;;;;;;7.63;3.33;;;7.20;99.90;;;;;;2237401;26;20048;-71
2024/04/25 02:34:49;;;;;;;7.00;3.10;;;7.20;99.90;;;;;;2234721;26;20015;-71
2024/04/25 02:35:50;;;;;;;6.07;3.30;;;7.20;99.90;;;;;;2237191;26;20015;-71
2024/04/25 02:36:50;;;;;;;4.65;3.10;;;7.20;99.90;;;;;;2238011;26;20011;-71
2024/04/25 02:37:51;;;;;;;4.03;3.58;;;7.20;99.90;;;;;;2233305;26;20342;-71
2024/04/25 02:38:51;;;;;;;3.33;3.00;;;7.20;99.90;;;;;;2235431;26;20082;-71
2024/04/25 02:39:52;;;;;;;7.63;3.53;;;7.20;99.90;;;;;;2232065;26;20329;-71
2024/04/25 02:40:52;;;;;;;6.10;3.70;;;7.20;99.90;;;;;;2232724;26;19996;-71
2024/04/25 02:41:53;;;;;;;6.97;3.55;;;7.20;99.90;;;;;;2230545;26;20000;-71
2024/04/25 02:42:54;;;;;;;3.88;2.80;;;7.20;99.90;;;;;;2237142;26;20043;-71
2024/04/25 02:43:54;;;;;;;4.10;2.90;;;7.20;99.90;;;;;;2236858;26;20393;-71
2024/04/25 02:44:55;;;;;;;5.75;3.35;;;7.20;99.90;;;;;;2237390;26;19996;-71
2024/04/25 02:45:55;;;;;;;6.05;3.00;;;7.20;99.90;;;;;;2236880;26;20069;-71
2024/04/25 02:46:56;;;;;;;4.47;2.88;;;7.20;99.90;;;;;;2234457;26;20000;-71
2024/04/25 02:47:56;;;;;;;5.32;3.03;;;7.20;99.90;;;;;;2235314;26;20014;-71
2024/04/25 02:48:58;;;;;;;5.60;3.00;;;7.20;99.90;;;;;;2237423;26;20411;-71
2024/04/25 02:49:58;;;;;;;5.55;2.63;;;7.20;99.90;;;;;;2236373;26;20034;-71
2024/04/25 02:50:59;;;;;;;4.43;2.67;;;7.20;99.90;;;;;;2236531;26;21286;-71
2024/04/25 02:51:59;;;;;;;6.82;2.88;;;7.30;99.90;;;;;;2237364;26;20687;-71
2024/04/25 02:53:00;;;;;;;3.47;2.40;;;7.30;99.90;;;;;;2235969;26;19999;-71
2024/04/25 02:54:00;;;;;;;6.05;3.00;;;7.30;99.90;;;;;;2236041;26;20026;-70
2024/04/25 02:55:01;;;;;;;4.30;2.38;;;7.30;99.90;;;;;;2231474;26;20022;-71
2024/04/25 02:56:02;;;;;;;4.47;2.90;;;7.30;99.90;;;;;;2237264;26;20006;-71
2024/04/25 02:57:02;;;;;;;4.10;2.67;;;7.20;99.90;;;;;;2250325;26;19994;-71
2024/04/25 02:58:03;;;;;;;7.28;2.75;;;7.20;99.90;;;;;;2240028;26;20006;-71
2024/04/25 02:59:06;;;;;;;5.75;2.83;;;7.20;99.90;;;;;;2235097;26;20003;-72
2024/04/25 03:00:07;;;;;;;3.00;2.50;;;7.30;99.90;;;;;;2238703;26;20002;-71
2024/04/25 03:01:08;;;;;;;4.63;2.85;;;7.20;99.90;;;;;;2234155;26;20324;-71
2024/04/25 03:02:09;;;;;;;4.47;2.80;;;7.30;99.90;;;;;;2236114;26;20035;-71
2024/04/25 03:03:09;;;;;;;4.07;2.38;;;7.30;99.90;;;;;;2237259;26;20015;-71
2024/04/25 03:04:10;;;;;;;2.90;2.42;;;7.30;99.90;;;;;;2234781;26;20387;-71
2024/04/25 03:05:10;;;;;;;5.18;2.30;;;7.20;99.90;;;;;;2236908;26;20013;-71
2024/04/25 03:06:11;;;;;;;4.05;2.83;;;7.20;99.90;;;;;;2238361;26;19999;-71
2024/04/25 03:07:11;;;;;;;7.40;3.20;;;7.20;99.90;;;;;;2237243;26;20008;-71
2024/04/25 03:08:12;;;;;;;4.88;2.85;;;7.20;99.90;;;;;;2236754;26;20386;-71
2024/04/25 03:09:12;;;;;;;6.63;3.30;;;7.20;99.90;;;;;;2233066;26;20076;-71
2024/04/25 03:10:13;;;;;;;4.57;2.83;;;7.20;99.90;;;;;;2233608;26;20008;-71
2024/04/25 03:11:13;;;;;;;4.28;2.60;;;7.20;99.90;;;;;;2238092;26;19999;-71
2024/04/25 03:12:14;;;;;;;7.45;3.30;;;7.20;99.90;;;;;;2234368;26;20015;-71
2024/04/25 03:13:14;;;;;;;5.00;2.88;;;7.20;99.90;;;;;;2235000;26;20144;-71
2024/04/25 03:14:15;;;;;;;6.10;2.67;;;7.20;99.90;;;;;;2236210;26;20010;-71
2024/04/25 03:15:15;;;;;;;5.70;3.53;;;7.20;99.90;;;;;;2233628;26;20000;-71
2024/04/25 03:16:16;;;;;;;4.05;2.70;;;7.20;99.90;;;;;;2238072;26;20015;-71
2024/04/25 03:17:16;;;;;;;5.10;3.45;;;7.20;99.90;;;;;;2235512;26;20011;-71
2024/04/25 03:18:17;;;;;;;5.20;2.67;;;7.20;99.90;;;;;;2236710;26;20088;-71
2024/04/25 03:19:17;;;;;;;5.18;2.83;;;7.20;99.90;;;;;;2237190;26;20325;-71
2024/04/25 03:20:18;;;;;;;10.13;2.90;;;7.20;99.90;;;;;;2236202;26;20004;-71
2024/04/25 03:21:19;;;;;;;10.05;2.90;;;7.20;99.90;;;;;;2237087;26;20098;-71
2024/04/25 03:22:19;;;;;;;3.95;2.90;;;7.20;99.90;;;;;;2236839;26;20082;-72
2024/04/25 03:23:20;;;;;;;4.72;2.90;;;7.20;99.90;;;;;;2235254;26;20017;-71
2024/04/25 03:24:20;;;;;;;5.03;3.20;;;7.20;99.90;;;;;;2238355;26;20010;-71
2024/04/25 03:25:21;;;;;;;7.93;3.25;;;7.20;99.90;;;;;;2234665;26;20010;-71
2024/04/25 03:26:21;;;;;;;6.78;2.92;;;7.20;99.90;;;;;;2236631;26;20460;-71
2024/04/25 03:27:22;;;;;;;5.93;3.40;;;7.20;99.90;;;;;;2237312;26;19995;-71
2024/04/25 03:28:22;;;;;;;8.32;3.45;;;7.20;99.90;;;;;;2236713;26;20075;-71
2024/04/25 03:29:23;;;;;;;8.57;3.25;;;7.20;99.90;;;;;;2235557;26;20031;-73
2024/04/25 03:30:23;;;;;;;6.53;3.22;;;7.20;99.90;;;;;;2236219;26;20019;-71
2024/04/25 03:31:24;;;;;;;7.20;3.47;;;7.20;99.90;;;;;;2233281;26;20070;-71
2024/04/25 03:32:28;;;;;;;8.23;3.53;;;7.20;99.90;;;;;;2237951;26;20000;-71
2024/04/25 03:33:29;;;;;;;8.98;3.70;;;7.20;99.90;;;;;;2236465;26;19995;-71
2024/04/25 03:34:30;;;;;;;6.95;3.53;;;7.20;99.90;;;;;;2235699;26;20000;-71
2024/04/25 03:35:30;;;;;;;9.60;3.80;;;7.20;99.90;;;;;;2236587;26;20136;-71
2024/04/25 03:36:31;;;;;;;6.63;3.80;;;7.20;99.90;;;;;;2236362;26;20043;-71
2024/04/25 03:37:31;;;;;;;9.15;4.25;;;7.30;99.90;;;;;;2235936;26;20023;-71
2024/04/25 03:38:32;;;;;;;5.82;4.05;;;7.20;99.90;;;;;;2240512;26;19995;-71
2024/04/25 03:39:32;;;;;;;8.32;3.90;;;7.30;99.90;;;;;;2235700;26;20007;-71
2024/04/25 03:40:37;;;;;;;7.88;4.30;;;7.30;99.90;;;;;;2232058;26;19995;-71
2024/04/25 03:41:37;;;;;;;8.15;4.15;;;7.30;99.90;;;;;;2225722;26;20449;-71
2024/04/25 03:42:38;;;;;;;8.55;4.60;;;7.30;99.90;;;;;;2235438;26;20364;-71
2024/04/25 03:43:38;;;;;;;8.32;4.57;;;7.30;99.90;;;;;;2234192;26;19999;-71
2024/04/25 03:44:39;;;;;;;10.60;4.93;;;7.30;99.90;;;;;;2232403;26;20015;-71
2024/04/25 03:45:39;;;;;;;7.88;5.10;;;7.30;99.90;;;;;;2235929;26;20039;-71
2024/04/25 03:46:40;;;;;;;8.00;4.50;;;7.20;99.90;;;;;;2236720;26;20348;-71
2024/04/25 03:47:40;;;;;;;8.77;4.60;;;7.20;99.90;;;;;;2236183;26;20628;-71
2024/04/25 03:48:41;;;;;;;8.15;5.22;;;7.30;99.90;;;;;;2237701;26;20004;-71
2024/04/25 03:49:42;;;;;;;10.50;4.95;;;7.30;99.90;;;;;;2235958;26;20022;-71
2024/04/25 03:50:43;;;;;;;10.27;5.55;;;7.30;99.90;;;;;;2236149;26;20011;-71
2024/04/25 03:51:43;;;;;;;11.38;5.47;;;7.20;99.90;;;;;;2237318;26;20010;-71
2024/04/25 03:52:44;;;;;;;11.05;5.07;;;7.20;99.90;;;;;;2233780;26;20016;-72
2024/04/25 03:53:44;;;;;;;7.47;5.38;;;7.20;99.90;;;;;;2236719;26;20043;-71
2024/04/25 03:54:45;;;;;;;11.70;5.43;;;7.20;99.90;;;;;;2235586;26;20012;-71
2024/04/25 03:55:45;;;;;;;8.60;5.38;;;7.30;99.90;;;;;;2232177;26;20003;-71
2024/04/25 03:56:46;;;;;;;7.90;5.25;;;7.20;99.90;;;;;;2237466;26;20080;-71
2024/04/25 03:57:47;;;;;;;9.35;5.82;;;7.30;99.90;;;;;;2232517;26;21335;-71
2024/04/25 03:58:47;;;;;;;9.23;5.78;;;7.30;99.90;;;;;;2234727;26;20080;-71
2024/04/25 03:59:48;;;;;;;10.63;5.80;;;7.30;99.90;;;;;;2236541;26;20015;-71
2024/04/25 04:00:48;;;;;;;9.57;5.65;;;7.30;99.90;;;;;;2236181;26;20003;-71
2024/04/25 04:01:49;;;;;;;9.50;5.43;;;7.30;99.90;;;;;;2237036;26;20027;-71
2024/04/25 04:02:49;;;;;;;12.80;6.00;;;7.30;99.90;;;;;;2235698;26;20003;-71
2024/04/25 04:03:50;;;;;;;11.07;5.57;;;7.30;99.90;;;;;;2232992;26;20104;-71
2024/04/25 04:04:50;;;;;;;9.00;5.50;;;7.30;99.90;;;;;;2237297;26;20019;-71
2024/04/25 04:05:51;;;;;;;10.20;6.18;;;7.30;99.90;;;;;;2232102;26;19999;-71
2024/04/25 04:06:52;;;;;;;10.25;5.47;;;7.30;99.90;;;;;;2236793;26;20019;-71
2024/04/25 04:07:52;;;;;;;13.07;5.95;;;7.40;99.90;;;;;;2236818;26;20012;-71
2024/04/25 04:08:53;;;;;;;9.60;6.20;;;7.30;99.90;;;;;;2236263;26;20392;-71
2024/04/25 04:09:54;;;;;;;10.57;6.10;;;7.30;99.90;;;;;;2237277;26;19999;-71
2024/04/25 04:10:54;;;;;;;12.30;6.45;;;7.30;99.90;;;;;;2235111;26;20054;-71
2024/04/25 04:11:55;;;;;;;10.93;6.05;;;7.30;99.90;;;;;;2232689;26;20464;-71
2024/04/25 04:12:56;;;;;;;10.57;5.80;;;7.40;99.90;;;;;;2221875;26;20014;-71
2024/04/25 04:13:56;;;;;;;13.85;6.18;;;7.30;99.90;;;;;;2233743;26;20003;-71
2024/04/25 04:14:57;;;;;;;11.45;5.88;;;7.30;99.90;;;;;;2236626;26;20011;-71
2024/04/25 04:15:58;;;;;;;10.88;6.30;;;7.30;99.90;;;;;;2236025;26;20014;-71
2024/04/25 04:16:58;;;;;;;12.23;6.10;;;7.30;99.90;;;;;;2236786;26;20336;-71
2024/04/25 04:17:59;;;;;;;13.02;6.95;;;7.30;99.90;;;;;;2235916;26;20004;-71
2024/04/25 04:18:59;;;;;;;10.55;6.10;;;7.30;99.90;;;;;;2236472;26;19999;-71
2024/04/25 04:20:00;;;;;;;11.75;5.80;;;7.30;99.90;;;;;;2236988;26;20073;-71
2024/04/25 04:21:00;;;;;;;9.10;5.78;;;7.30;99.90;;;;;;2238997;26;20037;-71
2024/04/25 04:22:01;;;;;;;12.10;5.88;;;7.30;99.90;;;;;;2236480;26;20031;-71
2024/04/25 04:23:01;;;;;;;8.98;5.68;;;7.30;99.90;;;;;;2237866;26;19999;-71
2024/04/25 04:24:02;;;;;;;12.60;5.38;;;7.30;99.90;;;;;;2238828;26;20088;-71
2024/04/25 04:25:04;;;;;;;12.23;6.15;;;7.30;99.90;;;;;;2234817;26;20040;-71
2024/04/25 04:26:05;;;;;;;11.13;5.93;;;7.30;99.90;;;;;;2239349;26;19999;-71
2024/04/25 04:27:05;;;;;;;11.77;6.25;;;7.30;99.90;;;;;;2237046;26;20077;-71
2024/04/25 04:28:06;;;;;;;16.85;6.90;;;7.30;99.90;;;;;;2237138;26;20476;-71
2024/04/25 04:29:06;;;;;;;10.88;5.95;;;7.20;99.90;;;;;;2238736;26;20011;-71
2024/04/25 04:30:07;;;;;;;10.93;6.13;;;7.20;99.90;;;;;;2235231;26;20000;-71
2024/04/25 04:31:08;;;;;;;14.25;6.10;;;7.20;99.90;;;;;;2233590;26;20004;-71
2024/04/25 04:32:08;;;;;;;9.88;5.32;;;7.20;99.90;;;;;;2236998;26;20006;-71
2024/04/25 04:33:09;;;;;;;11.70;5.68;;;7.20;99.90;;;;;;2238065;26;20855;-71
2024/04/25 04:34:09;;;;;;;12.45;6.13;;;7.20;99.90;;;;;;2239179;26;20002;-71
2024/04/25 04:35:10;;;;;;;9.73;6.28;;;7.20;99.90;;;;;;2237799;26;20014;-71
2024/04/25 04:36:10;;;;;;;15.38;5.70;;;7.20;99.90;;;;;;2236860;26;20027;-71
2024/04/25 04:37:12;;;;;;;9.93;5.80;;;7.20;99.90;;;;;;2238170;26;21863;-71
2024/04/25 04:38:13;;;;;;;15.05;6.05;;;7.20;99.90;;;;;;2235234;26;19999;-71
2024/04/25 04:39:13;;;;;;;5.63;4.30;;;7.20;99.90;;;;;;2239322;26;20026;-71
2024/04/25 04:40:14;;;;;;;9.63;5.45;;;7.20;99.90;;;;;;2241143;26;20018;-71
2024/04/25 04:41:14;;;;;;;13.90;6.53;;;7.20;99.90;;;;;;2233485;26;20028;-71
2024/04/25 04:42:15;;;;;;;10.18;5.50;;;7.20;99.90;;;;;;2236947;26;20003;-71
2024/04/25 04:43:15;;;;;;;12.30;6.55;;;7.20;99.90;;;;;;2236400;26;20109;-71
2024/04/25 04:44:16;;;;;;;15.13;6.47;;;7.20;99.90;;;;;;2236510;26;20019;-71
2024/04/25 04:45:17;;;;;;;14.13;6.45;;;7.20;99.90;;;;;;2238431;26;20004;-71
2024/04/25 04:46:17;;;;;;;10.73;5.20;;;7.20;99.90;;;;;;2235591;26;20008;-71
2024/04/25 04:47:18;;;;;;;9.20;5.28;;;7.20;99.90;;;;;;2232928;26;20014;-71
2024/04/25 04:48:19;;;;;;;10.43;5.18;;;7.20;99.90;;;;;;2233093;26;19995;-71
2024/04/25 04:49:19;;;;;;;12.88;5.53;;;7.20;99.90;;;;;;2236661;26;20004;-71
2024/04/25 04:50:20;;;;;;;9.80;5.03;;;7.20;99.90;;;;;;2236916;26;20362;-71
2024/04/25 04:51:21;;;;;;;14.45;5.20;;;7.20;99.90;;;;;;2236795;26;20036;-71
2024/04/25 04:52:21;;;;;;;12.98;5.82;;;7.20;99.90;;;;;;2236798;26;20030;-71
2024/04/25 04:53:22;;;;;;;11.57;5.68;;;7.10;99.90;;;;;;2238578;26;19999;-71
2024/04/25 04:54:22;;;;;;;10.05;6.35;;;7.10;99.90;;;;;;2237631;26;19996;-71
2024/04/25 04:55:23;;;;;;;11.43;5.90;;;7.10;99.90;;;;;;2238673;26;20370;-71
2024/04/25 04:56:24;;;;;;;10.93;5.70;;;7.10;99.90;;;;;;2237853;26;19999;-71
2024/04/25 04:57:24;;;;;;;15.02;6.22;;;7.10;99.90;;;;;;2237613;26;20010;-71
2024/04/25 04:58:25;;;;;;;11.95;5.95;;;7.10;99.90;;;;;;2238467;26;20003;-71
2024/04/25 04:59:26;;;;;;;15.02;5.75;;;7.10;99.90;;;;;;2237475;26;20000;-71
2024/04/25 05:00:26;;;;;;;15.52;6.90;;;7.10;99.90;;;;;;2234289;26;20011;-71
2024/04/25 05:01:27;;;;;;;15.15;6.32;;;7.10;99.90;;;;;;2235403;26;19995;-72
2024/04/25 05:02:28;;;;;;;14.75;6.28;;;7.10;99.90;;;;;;2220159;26;20004;-71
2024/04/25 05:03:28;;;;;;;15.30;6.22;;;7.10;99.90;;;;;;2229692;26;20000;-71
2024/04/25 05:04:29;;;;;;;16.35;6.20;;;7.10;99.90;;;;;;2250971;26;19998;-71
2024/04/25 05:05:29;;;;;;;15.43;6.93;;;7.10;99.90;;;;;;2230484;26;19999;-71
2024/04/25 05:06:30;;;;;;;18.05;6.63;;;7.10;99.90;;;;;;2238512;26;20007;-71
2024/04/25 05:07:33;;;;;;;12.20;6.53;;;7.10;99.90;;;;;;2236031;26;20031;-71
2024/04/25 05:08:36;;;;;;;13.88;6.47;;;7.10;99.90;;;;;;2237922;26;20076;-71
2024/04/25 05:09:37;;;;;;;14.20;6.72;;;7.10;99.90;;;;;;2244103;26;21186;-71
2024/04/25 05:10:38;;;;;;;11.88;6.88;;;7.10;99.90;;;;;;2234786;26;20437;-71
2024/04/25 05:11:38;;;;;;;14.05;7.63;;;7.10;99.90;;;;;;2251878;26;20018;-71
2024/04/25 05:12:39;;;;;;;15.95;6.88;;;7.10;99.90;;;;;;2250092;26;20006;-71
2024/04/25 05:13:39;;;;;;;12.82;6.72;;;7.10;99.90;;;;;;2237776;26;20022;-71
2024/04/25 05:14:40;;;;;;;12.15;7.45;;;7.10;99.90;;;;;;2251657;26;20765;-71
2024/04/25 05:15:41;;;;;;;10.75;6.78;;;7.10;99.90;;;;;;2250473;26;20021;-71
2024/04/25 05:16:41;;;;;;;10.40;7.05;;;7.10;99.90;;;;;;2233898;26;20003;-71
2024/04/25 05:17:42;;;;;;;13.65;7.53;;;7.10;99.90;;;;;;2238573;26;20015;-71
2024/04/25 05:18:42;;;;;;;17.17;8.40;;;7.10;99.90;;;;;;2236495;26;19999;-71
2024/04/25 05:19:43;;;;;;;12.77;7.13;;;7.10;99.90;;;;;;2237180;26;20093;-71
2024/04/25 05:20:43;;;;;;;15.57;8.38;;;7.10;99.90;;;;;;2250961;26;20447;-71
2024/04/25 05:21:46;;;;;;;16.27;8.93;;;7.10;99.90;;;;;;2251357;26;20007;-70
2024/04/25 05:22:46;;;;;;;14.75;8.52;;;7.10;99.90;;;;;;2238179;26;20012;-70
2024/04/25 05:23:47;;;;;;;17.27;8.85;;;7.10;99.90;;;;;;2237214;26;20015;-70
2024/04/25 05:24:47;;;;;;;14.57;7.75;;;7.10;99.90;;;;;;2236377;26;20076;-71
2024/04/25 05:25:49;;;;;;;14.68;7.90;;;7.20;99.90;;;;;;2240356;26;20332;-70